createdAt,value
2022-09-09T00:04:48.811Z,6.07
2022-09-09T00:10:01.741Z,6.12
2022-09-09T00:15:14.043Z,6.16
2022-09-09T00:20:31.227Z,6.08
2022-09-09T00:25:42.601Z,5.95
2022-09-09T00:30:50.041Z,5.76
2022-09-09T00:35:57.134Z,5.69
2022-09-09T00:41:08.638Z,5.67
2022-09-09T00:46:52.588Z,5.69
2022-09-09T00:52:06.513Z,5.58
2022-09-09T00:57:21.347Z,5.44
2022-09-09T01:02:32.701Z,5.33
2022-09-09T01:07:42.178Z,5.18
2022-09-09T01:12:49.394Z,5.14
2022-09-09T01:18:01.448Z,5.06
2022-09-09T01:23:29.075Z,4.91
2022-09-09T01:28:38.056Z,5.10
2022-09-09T01:33:41.670Z,5.11
2022-09-09T01:38:45.829Z,4.92
2022-09-09T01:43:52.946Z,5.08
2022-09-09T01:49:00.369Z,5.03
2022-09-09T01:54:04.914Z,4.96
2022-09-09T01:59:26.773Z,4.95
2022-09-09T02:04:39.983Z,4.94
2022-09-09T02:09:48.297Z,4.94
2022-09-09T02:15:13.798Z,4.92
2022-09-09T02:20:17.902Z,4.85
2022-09-09T02:25:26.644Z,4.69
2022-09-09T02:30:36.370Z,4.54
2022-09-09T02:35:41.148Z,4.40
2022-09-09T02:40:44.632Z,4.32
2022-09-09T02:46:02.528Z,4.22
2022-09-09T02:51:11.413Z,4.19
2022-09-09T02:56:18.625Z,4.09
2022-09-09T03:01:26.823Z,4.03
2022-09-09T03:06:30.255Z,4.02
2022-09-09T03:11:34.548Z,4.05
2022-09-09T03:16:39.452Z,4.08
2022-09-09T03:21:42.794Z,4.13
2022-09-09T03:26:46.869Z,4.11
2022-09-09T03:31:52.413Z,4.19
2022-09-09T03:36:56.860Z,4.33
2022-09-09T03:42:00.318Z,4.53
2022-09-09T03:47:06.084Z,4.64
2022-09-09T03:52:11.040Z,4.65
2022-09-09T03:57:17.710Z,4.73
2022-09-09T04:02:25.608Z,4.85
2022-09-09T04:07:29.587Z,6.67
2022-09-09T04:12:33.119Z,14.29
2022-09-09T04:17:38.654Z,19.09
2022-09-09T04:22:42.121Z,20.08
2022-09-09T04:27:45.911Z,14.37
2022-09-09T04:32:51.361Z,11.43
2022-09-09T04:37:54.670Z,9.81
2022-09-09T04:43:00.073Z,8.93
2022-09-09T04:48:05.106Z,8.26
2022-09-09T04:53:10.487Z,7.82
2022-09-09T04:58:14.556Z,7.69
2022-09-09T05:03:19.553Z,10.66
2022-09-09T05:08:23.934Z,20.18
2022-09-09T05:13:28.638Z,24.93
2022-09-09T05:18:33.403Z,28.14
2022-09-09T05:23:36.943Z,29.95
2022-09-09T05:28:42.508Z,31.87
2022-09-09T05:33:50.471Z,32.60
2022-09-09T05:38:54.868Z,33.34
2022-09-09T05:44:00.122Z,34.20
2022-09-09T05:49:06.607Z,34.37
2022-09-09T05:54:09.977Z,34.49
2022-09-09T05:59:13.725Z,35.16
2022-09-09T06:04:19.071Z,35.45
2022-09-09T06:09:24.326Z,36.52
2022-09-09T06:14:28.415Z,37.24
2022-09-09T06:19:33.199Z,36.88
2022-09-09T06:24:36.712Z,34.91
2022-09-09T06:29:40.098Z,33.80
2022-09-09T06:34:45.001Z,34.79
2022-09-09T06:39:52.342Z,34.87
2022-09-09T06:44:55.940Z,37.13
2022-09-09T06:50:01.124Z,39.02
2022-09-09T06:55:04.891Z,34.73
2022-09-09T07:00:11.332Z,31.09
2022-09-09T07:05:17.118Z,25.80
2022-09-09T07:10:20.564Z,25.77
2022-09-09T07:15:24.690Z,24.39
2022-09-09T07:20:29.262Z,25.08
2022-09-09T07:25:33.671Z,23.69
2022-09-09T07:30:37.229Z,21.64
2022-09-09T07:35:42.942Z,19.90
2022-09-09T07:40:46.906Z,18.42
2022-09-09T07:45:51.242Z,21.20
2022-09-09T07:51:04.874Z,20.90
2022-09-09T07:56:12.155Z,19.47
2022-09-09T08:01:18.151Z,18.30
2022-09-09T08:06:26.108Z,19.97
2022-09-09T08:11:34.240Z,26.06
2022-09-09T08:16:42.818Z,27.96
2022-09-09T08:21:50.123Z,27.58
2022-09-09T08:26:54.763Z,24.97
2022-09-09T08:31:59.757Z,21.83
2022-09-09T08:37:04.960Z,19.85
2022-09-09T08:42:29.214Z,19.52
2022-09-09T08:47:42.089Z,20.03
2022-09-09T08:52:53.613Z,18.31
2022-09-09T08:58:02.331Z,17.20
2022-09-09T09:03:13.724Z,16.78
2022-09-09T09:08:28.019Z,16.62
2022-09-09T09:13:43.707Z,16.31
2022-09-09T09:18:48.519Z,15.79
2022-09-09T09:23:59.376Z,15.19
2022-09-09T09:29:12.170Z,14.94
2022-09-09T09:34:16.017Z,14.93
2022-09-09T09:40:10.459Z,15.40
2022-09-09T09:46:19.069Z,15.63
2022-09-09T09:51:24.966Z,16.17
2022-09-09T09:56:32.186Z,16.52
2022-09-09T10:07:21.741Z,16.59
2022-09-09T10:12:43.348Z,16.87
2022-09-09T10:24:11.344Z,17.30
2022-09-09T10:29:48.792Z,16.78
2022-09-09T10:34:59.640Z,16.47
2022-09-09T10:40:19.485Z,16.01
2022-09-09T10:45:35.412Z,15.44
2022-09-09T10:51:03.836Z,15.46
2022-09-09T10:56:12.409Z,15.30
2022-09-09T11:07:31.019Z,15.15
2022-09-09T11:12:41.375Z,14.74
2022-09-09T11:17:50.444Z,14.66
2022-09-09T11:23:01.440Z,14.56
2022-09-09T11:28:23.568Z,14.77
2022-09-09T11:33:51.341Z,15.29
2022-09-09T11:39:03.613Z,15.96
2022-09-09T11:44:14.910Z,16.38
2022-09-09T11:49:32.482Z,16.53
2022-09-09T11:54:49.336Z,16.39
2022-09-09T11:59:54.719Z,15.98
2022-09-09T12:05:04.009Z,15.60
2022-09-09T12:10:38.746Z,15.61
2022-09-09T12:15:51.386Z,15.38
2022-09-09T12:21:05.035Z,15.23
2022-09-09T12:26:51.406Z,14.82
2022-09-09T12:32:10.736Z,15.02
2022-09-09T12:37:23.144Z,15.31
2022-09-09T12:42:29.398Z,15.58
2022-09-09T12:47:47.027Z,15.66
2022-09-09T12:52:53.319Z,15.56
2022-09-09T12:58:01.219Z,15.24
2022-09-09T13:03:21.583Z,14.90
2022-09-09T13:08:26.924Z,14.59
2022-09-09T13:13:36.964Z,14.41
2022-09-09T13:18:47.540Z,14.51
2022-09-09T13:23:54.211Z,14.65
2022-09-09T13:29:19.785Z,14.74
2022-09-09T13:34:30.632Z,14.54
2022-09-09T13:39:36.578Z,14.24
2022-09-09T13:44:44.568Z,13.96
2022-09-09T13:49:49.455Z,13.66
2022-09-09T13:54:55.697Z,13.35
2022-09-09T14:00:05.486Z,13.17
2022-09-09T14:05:10.501Z,13.03
2022-09-09T14:10:15.553Z,13.20
2022-09-09T14:15:21.198Z,13.27
2022-09-09T14:20:25.699Z,13.52
2022-09-09T14:25:30.922Z,13.89
2022-09-09T14:30:36.506Z,14.00
2022-09-09T14:35:42.924Z,14.15
2022-09-09T14:40:49.908Z,14.26
2022-09-09T14:45:56.532Z,14.25
2022-09-09T14:51:07.802Z,14.82
2022-09-09T14:56:14.706Z,14.11
2022-09-09T15:01:22.148Z,13.68
2022-09-09T15:06:27.129Z,13.40
2022-09-09T15:11:34.083Z,13.33
2022-09-09T15:16:40.896Z,12.88
2022-09-09T15:21:45.677Z,12.62
2022-09-09T15:26:49.823Z,12.46
2022-09-09T15:31:57.268Z,12.25
2022-09-09T15:37:01.802Z,12.02
2022-09-09T15:42:07.160Z,11.81
2022-09-09T15:47:14.963Z,11.60
2022-09-09T15:52:19.839Z,11.35
2022-09-09T15:57:24.054Z,11.11
2022-09-09T16:02:29.069Z,10.82
2022-09-09T16:07:33.511Z,10.56
2022-09-09T16:12:37.525Z,10.32
2022-09-09T16:17:43.317Z,10.07
2022-09-09T16:22:46.905Z,9.89
2022-09-09T16:27:51.622Z,9.69
2022-09-09T16:32:56.623Z,9.44
2022-09-09T16:38:01.459Z,9.23
2022-09-09T16:43:04.790Z,9.02
2022-09-09T16:48:11.038Z,8.80
2022-09-09T16:53:15.100Z,8.63
2022-09-09T16:58:19.874Z,8.52
2022-09-09T17:03:25.027Z,8.40
2022-09-09T17:08:29.278Z,8.23
2022-09-09T17:13:34.330Z,8.06
2022-09-09T17:18:41.094Z,7.90
2022-09-09T17:23:44.795Z,7.73
2022-09-09T17:28:49.379Z,7.61
2022-09-09T17:33:54.766Z,7.50
2022-09-09T17:38:59.432Z,7.41
2022-09-09T17:44:03.554Z,7.31
2022-09-09T17:49:11.879Z,7.24
2022-09-09T17:54:18.045Z,7.13
2022-09-09T17:59:22.853Z,7.05
2022-09-09T18:04:28.223Z,6.97
2022-09-09T18:09:33.521Z,6.84
2022-09-09T18:14:37.111Z,6.76
2022-09-09T18:19:43.160Z,6.61
2022-09-09T18:24:48.525Z,6.49
2022-09-09T18:29:52.690Z,6.48
2022-09-09T18:34:59.452Z,6.40
2022-09-09T18:40:04.791Z,6.33
2022-09-09T18:45:09.014Z,6.24
2022-09-09T18:50:14.264Z,6.10
2022-09-09T18:55:18.324Z,5.91
2022-09-09T19:00:22.634Z,5.90
2022-09-09T19:05:28.213Z,5.87
2022-09-09T19:10:32.922Z,5.82
2022-09-09T19:15:38.655Z,5.79
2022-09-09T19:20:44.586Z,5.67
2022-09-09T19:25:51.717Z,5.59
2022-09-09T19:30:57.525Z,5.57
2022-09-09T19:36:05.402Z,5.56
2022-09-09T19:41:12.477Z,5.51
2022-09-09T19:46:17.281Z,5.49
2022-09-09T19:51:23.721Z,5.46
2022-09-09T19:56:29.511Z,5.39
2022-09-09T20:01:40.099Z,5.36
2022-09-09T20:06:46.729Z,5.28
2022-09-09T20:11:52.204Z,5.21
2022-09-09T20:16:57.116Z,5.16
2022-09-09T20:22:02.455Z,5.10
2022-09-09T20:27:08.305Z,4.97
2022-09-09T20:32:12.973Z,4.89
2022-09-09T20:37:18.815Z,4.90
2022-09-09T20:42:22.528Z,4.84
2022-09-09T20:47:26.818Z,4.84
2022-09-09T20:52:31.615Z,4.81
2022-09-09T20:57:38.234Z,4.79
2022-09-09T21:02:41.804Z,4.70
2022-09-09T21:07:47.641Z,4.63
2022-09-09T21:12:51.044Z,4.51
2022-09-09T21:17:55.991Z,4.40
2022-09-09T21:23:01.140Z,4.28
2022-09-09T21:28:06.645Z,4.24
2022-09-09T21:33:11.666Z,4.15
2022-09-09T21:38:19.873Z,4.08
2022-09-09T21:43:23.771Z,3.99
2022-09-09T21:48:27.924Z,3.92
2022-09-09T21:53:33.605Z,3.95
2022-09-09T21:58:38.709Z,3.80
2022-09-09T22:03:42.568Z,3.98
2022-09-09T22:08:48.800Z,4.01
2022-09-09T22:13:54.437Z,3.96
2022-09-09T22:19:01.102Z,3.97
2022-09-09T22:24:07.376Z,3.92
2022-09-09T22:29:12.051Z,3.79
2022-09-09T22:34:15.851Z,3.76
2022-09-09T22:39:21.467Z,3.76
2022-09-09T22:44:25.190Z,3.69
2022-09-09T22:49:29.317Z,3.68
2022-09-09T22:54:34.070Z,3.61
2022-09-09T22:59:39.238Z,3.59
2022-09-09T23:04:42.687Z,3.61
2022-09-09T23:09:48.596Z,3.62
2022-09-09T23:14:54.185Z,3.61
2022-09-09T23:19:58.960Z,3.59
2022-09-09T23:25:05.978Z,3.56
2022-09-09T23:30:12.437Z,3.47
2022-09-09T23:35:16.336Z,3.41
2022-09-09T23:40:21.873Z,3.45
2022-09-09T23:45:26.117Z,3.23
2022-09-09T23:50:30.213Z,3.39
2022-09-09T23:55:35.308Z,3.26
